sensor_id;sensor_type;location;lat;lon;timestamp;temperature;humidity
9730;DHT22;4904;49.152;11.004;2023-02-15T00:01:42;1.00;99.90
9730;DHT22;4904;49.152;11.004;2023-02-15T00:04:11;0.90;99.90
9730;DHT22;4904;49.152;11.004;2023-02-15T00:06:40;0.80;99.90
9730;DHT22;4904;49.152;11.004;2023-02-15T00:09:08;0.80;99.90
9730;DHT22;4904;49.152;11.004;2023-02-15T00:11:36;0.80;99.90
9730;DHT22;4904;49.152;11.004;2023-02-15T00:14:18;0.80;99.90
9730;DHT22;4904;49.152;11.004;2023-02-15T00:16:46;1.00;99.90
9730;DHT22;4904;49.152;11.004;2023-02-15T00:19:15;0.90;99.90
9730;DHT22;4904;49.152;11.004;2023-02-15T00:21:44;0.90;99.90
9730;DHT22;4904;49.152;11.004;2023-02-15T00:24:12;1.00;99.90
9730;DHT22;4904;49.152;11.004;2023-02-15T00:26:40;0.90;99.90
9730;DHT22;4904;49.152;11.004;2023-02-15T00:29:09;1.00;99.90
9730;DHT22;4904;49.152;11.004;2023-02-15T00:31:36;0.80;99.90
9730;DHT22;4904;49.152;11.004;2023-02-15T00:34:04;0.80;99.90
9730;DHT22;4904;49.152;11.004;2023-02-15T00:36:31;0.90;99.90
9730;DHT22;4904;49.152;11.004;2023-02-15T00:39:00;1.00;99.90
9730;DHT22;4904;49.152;11.004;2023-02-15T00:41:27;1.00;99.90
9730;DHT22;4904;49.152;11.004;2023-02-15T00:43:54;1.00;99.90
9730;DHT22;4904;49.152;11.004;2023-02-15T00:46:20;1.00;99.90
9730;DHT22;4904;49.152;11.004;2023-02-15T00:48:48;1.10;99.90
9730;DHT22;4904;49.152;11.004;2023-02-15T00:51:14;1.00;99.90
9730;DHT22;4904;49.152;11.004;2023-02-15T00:53:42;1.00;99.90
9730;DHT22;4904;49.152;11.004;2023-02-15T00:56:11;1.10;99.90
9730;DHT22;4904;49.152;11.004;2023-02-15T00:58:38;1.00;99.90
9730;DHT22;4904;49.152;11.004;2023-02-15T01:01:07;1.00;99.90
9730;DHT22;4904;49.152;11.004;2023-02-15T01:03:35;1.00;99.90
9730;DHT22;4904;49.152;11.004;2023-02-15T01:06:02;1.00;99.90
9730;DHT22;4904;49.152;11.004;2023-02-15T01:08:30;1.00;99.90
9730;DHT22;4904;49.152;11.004;2023-02-15T01:11:03;0.90;99.90
9730;DHT22;4904;49.152;11.004;2023-02-15T01:13:31;0.70;99.90
9730;DHT22;4904;49.152;11.004;2023-02-15T01:15:58;0.60;99.90
9730;DHT22;4904;49.152;11.004;2023-02-15T01:18:25;0.30;99.90
9730;DHT22;4904;49.152;11.004;2023-02-15T01:20:53;0.10;99.90
9730;DHT22;4904;49.152;11.004;2023-02-15T01:23:20;0.20;99.90
9730;DHT22;4904;49.152;11.004;2023-02-15T01:25:49;0.30;99.90
9730;DHT22;4904;49.152;11.004;2023-02-15T01:28:16;0.40;99.90
9730;DHT22;4904;49.152;11.004;2023-02-15T01:30:44;0.50;99.90
9730;DHT22;4904;49.152;11.004;2023-02-15T01:33:11;0.70;99.90
9730;DHT22;4904;49.152;11.004;2023-02-15T01:35:44;0.80;99.90
9730;DHT22;4904;49.152;11.004;2023-02-15T01:38:14;0.90;99.90
9730;DHT22;4904;49.152;11.004;2023-02-15T01:40:41;0.90;99.90
9730;DHT22;4904;49.152;11.004;2023-02-15T01:43:10;1.00;99.90
9730;DHT22;4904;49.152;11.004;2023-02-15T01:45:38;1.00;99.90
9730;DHT22;4904;49.152;11.004;2023-02-15T01:48:17;0.90;99.90
9730;DHT22;4904;49.152;11.004;2023-02-15T01:50:48;0.90;99.90
9730;DHT22;4904;49.152;11.004;2023-02-15T01:53:19;0.90;99.90
9730;DHT22;4904;49.152;11.004;2023-02-15T01:55:50;0.90;99.90
9730;DHT22;4904;49.152;11.004;2023-02-15T01:58:20;0.90;99.90
9730;DHT22;4904;49.152;11.004;2023-02-15T02:00:47;0.90;99.90
9730;DHT22;4904;49.152;11.004;2023-02-15T02:03:16;0.90;99.90
9730;DHT22;4904;49.152;11.004;2023-02-15T02:05:43;0.80;99.90
9730;DHT22;4904;49.152;11.004;2023-02-15T02:08:10;0.80;99.90
9730;DHT22;4904;49.152;11.004;2023-02-15T02:10:37;0.90;99.90
9730;DHT22;4904;49.152;11.004;2023-02-15T02:13:06;0.90;99.90
9730;DHT22;4904;49.152;11.004;2023-02-15T02:15:40;0.90;99.90
9730;DHT22;4904;49.152;11.004;2023-02-15T02:18:37;0.90;99.90
9730;DHT22;4904;49.152;11.004;2023-02-15T02:24:38;1.00;99.90
9730;DHT22;4904;49.152;11.004;2023-02-15T02:27:24;1.10;99.90
9730;DHT22;4904;49.152;11.004;2023-02-15T02:36:18;1.00;99.90
9730;DHT22;4904;49.152;11.004;2023-02-15T02:38:58;1.10;99.90
9730;DHT22;4904;49.152;11.004;2023-02-15T02:41:33;1.10;99.90
9730;DHT22;4904;49.152;11.004;2023-02-15T02:44:09;0.90;99.90
9730;DHT22;4904;49.152;11.004;2023-02-15T02:46:44;0.80;99.90
9730;DHT22;4904;49.152;11.004;2023-02-15T02:49:12;0.70;99.90
9730;DHT22;4904;49.152;11.004;2023-02-15T02:51:40;0.80;99.90
9730;DHT22;4904;49.152;11.004;2023-02-15T02:54:08;0.80;99.90
9730;DHT22;4904;49.152;11.004;2023-02-15T02:56:37;0.90;99.90
9730;DHT22;4904;49.152;11.004;2023-02-15T02:59:11;0.80;99.90
9730;DHT22;4904;49.152;11.004;2023-02-15T03:01:42;0.70;99.90
9730;DHT22;4904;49.152;11.004;2023-02-15T03:04:13;0.70;99.90
9730;DHT22;4904;49.152;11.004;2023-02-15T03:06:47;0.50;99.90
9730;DHT22;4904;49.152;11.004;2023-02-15T03:09:21;0.60;99.90
9730;DHT22;4904;49.152;11.004;2023-02-15T03:11:50;0.60;99.90
9730;DHT22;4904;49.152;11.004;2023-02-15T03:14:19;0.40;99.90
9730;DHT22;4904;49.152;11.004;2023-02-15T03:16:47;0.10;99.90
9730;DHT22;4904;49.152;11.004;2023-02-15T03:19:19;0.10;99.90
9730;DHT22;4904;49.152;11.004;2023-02-15T03:21:50;0.10;99.90
9730;DHT22;4904;49.152;11.004;2023-02-15T03:24:33;0.20;99.90
9730;DHT22;4904;49.152;11.004;2023-02-15T03:27:04;0.30;99.90
9730;DHT22;4904;49.152;11.004;2023-02-15T03:29:34;0.40;99.90
9730;DHT22;4904;49.152;11.004;2023-02-15T03:32:04;0.40;99.90
9730;DHT22;4904;49.152;11.004;2023-02-15T03:34:32;0.40;99.90
9730;DHT22;4904;49.152;11.004;2023-02-15T03:37:09;0.40;99.90
9730;DHT22;4904;49.152;11.004;2023-02-15T03:39:42;0.30;99.90
9730;DHT22;4904;49.152;11.004;2023-02-15T03:42:14;0.40;99.90
9730;DHT22;4904;49.152;11.004;2023-02-15T03:44:51;0.50;99.90
9730;DHT22;4904;49.152;11.004;2023-02-15T03:47:25;0.40;99.90
9730;DHT22;4904;49.152;11.004;2023-02-15T03:49:57;0.40;99.90
9730;DHT22;4904;49.152;11.004;2023-02-15T03:52:28;0.40;99.90
9730;DHT22;4904;49.152;11.004;2023-02-15T03:54:56;0.40;99.90
9730;DHT22;4904;49.152;11.004;2023-02-15T03:57:25;0.50;99.90
9730;DHT22;4904;49.152;11.004;2023-02-15T04:00:23;0.50;99.90
9730;DHT22;4904;49.152;11.004;2023-02-15T04:03:20;0.50;99.90
9730;DHT22;4904;49.152;11.004;2023-02-15T04:05:49;0.00;99.90
9730;DHT22;4904;49.152;11.004;2023-02-15T04:08:18;0.00;99.90
9730;DHT22;4904;49.152;11.004;2023-02-15T04:11:11;-0.40;99.90
9730;DHT22;4904;49.152;11.004;2023-02-15T04:13:37;-0.20;99.90
9730;DHT22;4904;49.152;11.004;2023-02-15T04:16:05;-0.10;99.90
9730;DHT22;4904;49.152;11.004;2023-02-15T04:18:32;0.00;99.90
9730;DHT22;4904;49.152;11.004;2023-02-15T04:21:17;0.20;99.90
9730;DHT22;4904;49.152;11.004;2023-02-15T04:24:04;0.30;99.90
9730;DHT22;4904;49.152;11.004;2023-02-15T04:26:52;0.30;99.90
9730;DHT22;4904;49.152;11.004;2023-02-15T04:29:22;0.30;99.90
9730;DHT22;4904;49.152;11.004;2023-02-15T04:31:49;0.40;99.90
9730;DHT22;4904;49.152;11.004;2023-02-15T04:34:18;0.40;99.90
9730;DHT22;4904;49.152;11.004;2023-02-15T04:36:45;0.50;99.90
9730;DHT22;4904;49.152;11.004;2023-02-15T04:39:18;0.50;99.90
9730;DHT22;4904;49.152;11.004;2023-02-15T04:41:45;0.50;99.90
9730;DHT22;4904;49.152;11.004;2023-02-15T04:44:13;0.60;99.90
9730;DHT22;4904;49.152;11.004;2023-02-15T04:46:40;0.50;99.90
9730;DHT22;4904;49.152;11.004;2023-02-15T04:49:08;0.50;99.90
9730;DHT22;4904;49.152;11.004;2023-02-15T04:51:35;0.50;99.90
9730;DHT22;4904;49.152;11.004;2023-02-15T04:54:02;0.50;99.90
9730;DHT22;4904;49.152;11.004;2023-02-15T04:56:30;0.50;99.90
9730;DHT22;4904;49.152;11.004;2023-02-15T04:58:59;0.60;99.90
9730;DHT22;4904;49.152;11.004;2023-02-15T05:01:27;0.50;99.90
9730;DHT22;4904;49.152;11.004;2023-02-15T05:03:54;0.40;99.90
9730;DHT22;4904;49.152;11.004;2023-02-15T05:06:21;0.30;99.90
9730;DHT22;4904;49.152;11.004;2023-02-15T05:08:49;0.30;99.90
9730;DHT22;4904;49.152;11.004;2023-02-15T05:11:16;0.50;99.90
9730;DHT22;4904;49.152;11.004;2023-02-15T05:13:44;0.40;99.90
9730;DHT22;4904;49.152;11.004;2023-02-15T05:16:11;0.50;99.90
9730;DHT22;4904;49.152;11.004;2023-02-15T05:18:38;0.50;99.90
9730;DHT22;4904;49.152;11.004;2023-02-15T05:21:06;0.50;99.90
9730;DHT22;4904;49.152;11.004;2023-02-15T05:23:33;0.60;99.90
9730;DHT22;4904;49.152;11.004;2023-02-15T05:26:00;0.50;99.90
9730;DHT22;4904;49.152;11.004;2023-02-15T05:28:46;0.50;99.90
9730;DHT22;4904;49.152;11.004;2023-02-15T05:31:14;0.50;99.90
9730;DHT22;4904;49.152;11.004;2023-02-15T05:33:42;0.60;99.90
9730;DHT22;4904;49.152;11.004;2023-02-15T05:36:09;0.60;99.90
9730;DHT22;4904;49.152;11.004;2023-02-15T05:38:36;0.50;99.90
9730;DHT22;4904;49.152;11.004;2023-02-15T05:41:03;0.50;99.90
9730;DHT22;4904;49.152;11.004;2023-02-15T05:43:31;0.50;99.90
9730;DHT22;4904;49.152;11.004;2023-02-15T05:45:59;0.20;99.90
9730;DHT22;4904;49.152;11.004;2023-02-15T05:48:27;0.00;99.90
9730;DHT22;4904;49.152;11.004;2023-02-15T05:50:58;-0.10;99.90
9730;DHT22;4904;49.152;11.004;2023-02-15T05:53:28;-0.10;99.90
9730;DHT22;4904;49.152;11.004;2023-02-15T05:55:55;0.00;99.90
9730;DHT22;4904;49.152;11.004;2023-02-15T05:58:24;0.00;99.90
9730;DHT22;4904;49.152;11.004;2023-02-15T06:00:52;0.10;99.90
9730;DHT22;4904;49.152;11.004;2023-02-15T06:03:21;0.10;99.90
9730;DHT22;4904;49.152;11.004;2023-02-15T06:05:48;0.20;99.90
9730;DHT22;4904;49.152;11.004;2023-02-15T06:08:15;0.20;99.90
9730;DHT22;4904;49.152;11.004;2023-02-15T06:10:42;0.10;99.90
9730;DHT22;4904;49.152;11.004;2023-02-15T06:13:09;0.20;99.90
9730;DHT22;4904;49.152;11.004;2023-02-15T06:15:36;0.10;99.90
9730;DHT22;4904;49.152;11.004;2023-02-15T06:18:03;0.10;99.90
9730;DHT22;4904;49.152;11.004;2023-02-15T06:20:31;0.10;99.90
9730;DHT22;4904;49.152;11.004;2023-02-15T06:22:58;0.00;99.90
9730;DHT22;4904;49.152;11.004;2023-02-15T06:25:25;0.20;99.90
9730;DHT22;4904;49.152;11.004;2023-02-15T06:27:52;0.10;99.90
9730;DHT22;4904;49.152;11.004;2023-02-15T06:30:19;0.00;99.90
9730;DHT22;4904;49.152;11.004;2023-02-15T06:32:46;0.00;99.90
9730;DHT22;4904;49.152;11.004;2023-02-15T06:35:13;0.00;99.90
9730;DHT22;4904;49.152;11.004;2023-02-15T06:37:45;-0.20;99.90
9730;DHT22;4904;49.152;11.004;2023-02-15T06:40:12;-0.20;99.90
9730;DHT22;4904;49.152;11.004;2023-02-15T06:42:40;-0.20;99.90
9730;DHT22;4904;49.152;11.004;2023-02-15T06:45:08;-0.20;99.90
9730;DHT22;4904;49.152;11.004;2023-02-15T06:47:36;-0.30;99.90
9730;DHT22;4904;49.152;11.004;2023-02-15T06:50:03;-0.50;99.90
9730;DHT22;4904;49.152;11.004;2023-02-15T06:52:30;-0.50;99.90
9730;DHT22;4904;49.152;11.004;2023-02-15T06:54:59;-0.50;99.90
9730;DHT22;4904;49.152;11.004;2023-02-15T06:57:25;-0.40;99.90
9730;DHT22;4904;49.152;11.004;2023-02-15T06:59:52;-0.30;99.90
9730;DHT22;4904;49.152;11.004;2023-02-15T07:02:19;-0.20;99.90
9730;DHT22;4904;49.152;11.004;2023-02-15T07:04:46;-0.10;99.90
9730;DHT22;4904;49.152;11.004;2023-02-15T07:07:13;-0.10;99.90
9730;DHT22;4904;49.152;11.004;2023-02-15T07:09:40;-0.20;99.90
9730;DHT22;4904;49.152;11.004;2023-02-15T07:12:09;-0.10;99.90
9730;DHT22;4904;49.152;11.004;2023-02-15T07:14:54;-0.10;99.90
9730;DHT22;4904;49.152;11.004;2023-02-15T07:17:21;-0.20;99.90
9730;DHT22;4904;49.152;11.004;2023-02-15T07:19:48;-0.30;99.90
9730;DHT22;4904;49.152;11.004;2023-02-15T07:22:14;-0.50;99.90
9730;DHT22;4904;49.152;11.004;2023-02-15T07:24:41;-0.60;99.90
9730;DHT22;4904;49.152;11.004;2023-02-15T07:27:09;-0.60;99.90
9730;DHT22;4904;49.152;11.004;2023-02-15T07:29:36;-0.70;99.90
9730;DHT22;4904;49.152;11.004;2023-02-15T07:32:03;-0.60;99.90
9730;DHT22;4904;49.152;11.004;2023-02-15T07:34:30;-0.60;99.90
9730;DHT22;4904;49.152;11.004;2023-02-15T07:36:57;-0.80;99.90
9730;DHT22;4904;49.152;11.004;2023-02-15T07:39:25;-0.90;99.90
9730;DHT22;4904;49.152;11.004;2023-02-15T07:41:52;-0.80;99.90
9730;DHT22;4904;49.152;11.004;2023-02-15T07:44:20;-0.70;99.90
9730;DHT22;4904;49.152;11.004;2023-02-15T07:46:47;-0.60;99.90
9730;DHT22;4904;49.152;11.004;2023-02-15T07:49:15;-0.50;99.90
9730;DHT22;4904;49.152;11.004;2023-02-15T07:51:42;-0.40;99.90
9730;DHT22;4904;49.152;11.004;2023-02-15T07:54:09;-0.30;99.90
9730;DHT22;4904;49.152;11.004;2023-02-15T07:56:36;-0.20;99.90
9730;DHT22;4904;49.152;11.004;2023-02-15T07:59:05;-0.10;99.90
9730;DHT22;4904;49.152;11.004;2023-02-15T08:01:36;0.00;99.90
9730;DHT22;4904;49.152;11.004;2023-02-15T08:04:05;-0.10;99.90
9730;DHT22;4904;49.152;11.004;2023-02-15T08:06:34;0.10;99.90
9730;DHT22;4904;49.152;11.004;2023-02-15T08:09:03;0.20;99.90
9730;DHT22;4904;49.152;11.004;2023-02-15T08:11:31;0.20;99.90
9730;DHT22;4904;49.152;11.004;2023-02-15T08:14:04;0.20;99.90
9730;DHT22;4904;49.152;11.004;2023-02-15T08:16:35;0.20;99.90
9730;DHT22;4904;49.152;11.004;2023-02-15T08:19:04;0.40;99.90
9730;DHT22;4904;49.152;11.004;2023-02-15T08:21:32;0.40;99.90
9730;DHT22;4904;49.152;11.004;2023-02-15T08:24:00;0.40;99.90
9730;DHT22;4904;49.152;11.004;2023-02-15T08:26:28;0.50;99.90
9730;DHT22;4904;49.152;11.004;2023-02-15T08:28:56;0.30;99.90
9730;DHT22;4904;49.152;11.004;2023-02-15T08:31:22;0.30;99.90
9730;DHT22;4904;49.152;11.004;2023-02-15T08:33:52;0.30;99.90
9730;DHT22;4904;49.152;11.004;2023-02-15T08:36:21;0.30;99.90
9730;DHT22;4904;49.152;11.004;2023-02-15T08:38:48;0.40;99.90
9730;DHT22;4904;49.152;11.004;2023-02-15T08:41:17;0.50;99.90
9730;DHT22;4904;49.152;11.004;2023-02-15T08:43:46;0.50;99.90
9730;DHT22;4904;49.152;11.004;2023-02-15T08:46:15;0.60;99.90
9730;DHT22;4904;49.152;11.004;2023-02-15T08:48:43;0.40;99.90
9730;DHT22;4904;49.152;11.004;2023-02-15T08:51:14;0.30;99.90
9730;DHT22;4904;49.152;11.004;2023-02-15T08:53:45;0.30;99.90
9730;DHT22;4904;49.152;11.004;2023-02-15T08:56:14;0.20;99.90
9730;DHT22;4904;49.152;11.004;2023-02-15T08:58:42;0.10;99.90
9730;DHT22;4904;49.152;11.004;2023-02-15T09:01:10;0.10;99.90
9730;DHT22;4904;49.152;11.004;2023-02-15T09:03:38;0.30;99.90
9730;DHT22;4904;49.152;11.004;2023-02-15T09:06:06;0.30;99.90
9730;DHT22;4904;49.152;11.004;2023-02-15T09:08:35;0.50;99.90
9730;DHT22;4904;49.152;11.004;2023-02-15T09:11:09;0.70;99.90
9730;DHT22;4904;49.152;11.004;2023-02-15T09:13:37;0.80;99.90
9730;DHT22;4904;49.152;11.004;2023-02-15T09:16:06;1.00;99.90
9730;DHT22;4904;49.152;11.004;2023-02-15T09:18:35;1.20;99.90
9730;DHT22;4904;49.152;11.004;2023-02-15T09:21:09;1.20;99.90
9730;DHT22;4904;49.152;11.004;2023-02-15T09:23:38;1.20;99.90
9730;DHT22;4904;49.152;11.004;2023-02-15T09:26:07;1.10;99.90
9730;DHT22;4904;49.152;11.004;2023-02-15T09:28:34;1.10;99.90
9730;DHT22;4904;49.152;11.004;2023-02-15T09:31:08;1.10;99.90
9730;DHT22;4904;49.152;11.004;2023-02-15T09:33:37;1.10;99.90
9730;DHT22;4904;49.152;11.004;2023-02-15T09:36:05;1.20;99.90
9730;DHT22;4904;49.152;11.004;2023-02-15T09:38:32;1.30;99.90
9730;DHT22;4904;49.152;11.004;2023-02-15T09:41:12;1.50;99.90
9730;DHT22;4904;49.152;11.004;2023-02-15T09:43:46;1.70;99.90
9730;DHT22;4904;49.152;11.004;2023-02-15T09:46:37;2.00;99.90
9730;DHT22;4904;49.152;11.004;2023-02-15T09:49:12;2.10;99.90
9730;DHT22;4904;49.152;11.004;2023-02-15T09:52:02;2.20;99.90
9730;DHT22;4904;49.152;11.004;2023-02-15T09:54:42;2.40;99.90
9730;DHT22;4904;49.152;11.004;2023-02-15T09:57:19;2.50;99.90
9730;DHT22;4904;49.152;11.004;2023-02-15T09:59:59;2.60;99.90
9730;DHT22;4904;49.152;11.004;2023-02-15T10:02:38;2.70;99.90
9730;DHT22;4904;49.152;11.004;2023-02-15T10:05:20;2.80;99.90
9730;DHT22;4904;49.152;11.004;2023-02-15T10:08:13;2.90;99.90
9730;DHT22;4904;49.152;11.004;2023-02-15T10:10:50;3.10;99.90
9730;DHT22;4904;49.152;11.004;2023-02-15T10:13:31;3.20;99.90
9730;DHT22;4904;49.152;11.004;2023-02-15T10:16:14;3.30;99.90
9730;DHT22;4904;49.152;11.004;2023-02-15T10:18:53;3.40;99.90
9730;DHT22;4904;49.152;11.004;2023-02-15T10:21:36;3.50;99.90
9730;DHT22;4904;49.152;11.004;2023-02-15T10:24:25;3.60;99.90
9730;DHT22;4904;49.152;11.004;2023-02-15T10:26:56;3.70;99.90
9730;DHT22;4904;49.152;11.004;2023-02-15T10:29:32;3.70;99.90
9730;DHT22;4904;49.152;11.004;2023-02-15T10:32:09;3.80;99.90
9730;DHT22;4904;49.152;11.004;2023-02-15T10:34:39;3.90;99.90
9730;DHT22;4904;49.152;11.004;2023-02-15T10:40:10;4.00;99.90
9730;DHT22;4904;49.152;11.004;2023-02-15T10:42:53;4.10;99.90
9730;DHT22;4904;49.152;11.004;2023-02-15T10:45:31;4.20;99.90
9730;DHT22;4904;49.152;11.004;2023-02-15T10:48:22;4.20;99.90
9730;DHT22;4904;49.152;11.004;2023-02-15T10:50:51;4.30;99.90
9730;DHT22;4904;49.152;11.004;2023-02-15T10:53:38;4.30;99.90
9730;DHT22;4904;49.152;11.004;2023-02-15T10:56:12;4.30;99.90
9730;DHT22;4904;49.152;11.004;2023-02-15T10:59:03;4.30;99.90
9730;DHT22;4904;49.152;11.004;2023-02-15T11:01:36;4.40;99.90
9730;DHT22;4904;49.152;11.004;2023-02-15T11:04:22;4.50;99.90
9730;DHT22;4904;49.152;11.004;2023-02-15T11:06:56;4.60;99.90
9730;DHT22;4904;49.152;11.004;2023-02-15T11:09:29;4.60;99.90
9730;DHT22;4904;49.152;11.004;2023-02-15T11:12:01;4.60;99.90
9730;DHT22;4904;49.152;11.004;2023-02-15T11:14:37;4.70;99.90
9730;DHT22;4904;49.152;11.004;2023-02-15T11:17:12;4.70;99.90
9730;DHT22;4904;49.152;11.004;2023-02-15T11:19:45;4.80;99.90
9730;DHT22;4904;49.152;11.004;2023-02-15T11:22:15;4.80;99.90
9730;DHT22;4904;49.152;11.004;2023-02-15T11:24:46;4.90;99.90
9730;DHT22;4904;49.152;11.004;2023-02-15T11:27:19;5.00;99.90
9730;DHT22;4904;49.152;11.004;2023-02-15T11:29:54;5.10;99.90
9730;DHT22;4904;49.152;11.004;2023-02-15T11:32:28;5.20;99.90
9730;DHT22;4904;49.152;11.004;2023-02-15T11:35:02;5.40;99.90
9730;DHT22;4904;49.152;11.004;2023-02-15T11:37:35;5.40;99.90
9730;DHT22;4904;49.152;11.004;2023-02-15T11:40:16;5.50;99.90
9730;DHT22;4904;49.152;11.004;2023-02-15T11:42:47;5.50;99.90
9730;DHT22;4904;49.152;11.004;2023-02-15T11:45:21;5.50;99.90
9730;DHT22;4904;49.152;11.004;2023-02-15T11:47:51;5.60;99.90
9730;DHT22;4904;49.152;11.004;2023-02-15T11:50:22;5.50;99.90
9730;DHT22;4904;49.152;11.004;2023-02-15T11:52:49;5.50;99.90
9730;DHT22;4904;49.152;11.004;2023-02-15T11:55:20;5.60;99.90
9730;DHT22;4904;49.152;11.004;2023-02-15T11:57:52;5.70;99.90
9730;DHT22;4904;49.152;11.004;2023-02-15T12:00:27;5.90;99.90
9730;DHT22;4904;49.152;11.004;2023-02-15T12:03:07;6.00;99.90
9730;DHT22;4904;49.152;11.004;2023-02-15T12:05:37;6.10;99.90
9730;DHT22;4904;49.152;11.004;2023-02-15T12:08:13;6.10;99.90
9730;DHT22;4904;49.152;11.004;2023-02-15T12:10:50;6.10;99.90
9730;DHT22;4904;49.152;11.004;2023-02-15T12:13:20;6.00;99.90
9730;DHT22;4904;49.152;11.004;2023-02-15T12:15:50;6.00;99.90
9730;DHT22;4904;49.152;11.004;2023-02-15T12:18:26;6.00;99.90
9730;DHT22;4904;49.152;11.004;2023-02-15T12:20:59;6.10;99.90
9730;DHT22;4904;49.152;11.004;2023-02-15T12:23:28;6.10;99.90
9730;DHT22;4904;49.152;11.004;2023-02-15T12:25:57;6.10;99.90
9730;DHT22;4904;49.152;11.004;2023-02-15T12:28:30;6.20;99.90
9730;DHT22;4904;49.152;11.004;2023-02-15T12:30:58;6.00;99.90
9730;DHT22;4904;49.152;11.004;2023-02-15T12:33:30;6.10;99.90
9730;DHT22;4904;49.152;11.004;2023-02-15T12:36:01;6.20;99.90
9730;DHT22;4904;49.152;11.004;2023-02-15T12:38:33;6.30;99.90
9730;DHT22;4904;49.152;11.004;2023-02-15T12:41:04;6.40;99.90
9730;DHT22;4904;49.152;11.004;2023-02-15T12:43:34;6.40;99.90
9730;DHT22;4904;49.152;11.004;2023-02-15T12:46:20;6.30;99.90
9730;DHT22;4904;49.152;11.004;2023-02-15T12:49:05;6.30;99.90
9730;DHT22;4904;49.152;11.004;2023-02-15T12:51:43;6.30;99.90
9730;DHT22;4904;49.152;11.004;2023-02-15T12:57:26;6.40;99.90
9730;DHT22;4904;49.152;11.004;2023-02-15T12:59:55;6.30;99.90
9730;DHT22;4904;49.152;11.004;2023-02-15T13:02:28;6.30;99.90
9730;DHT22;4904;49.152;11.004;2023-02-15T13:05:03;6.40;99.90
9730;DHT22;4904;49.152;11.004;2023-02-15T13:07:31;6.40;99.90
9730;DHT22;4904;49.152;11.004;2023-02-15T13:10:00;6.40;99.90
9730;DHT22;4904;49.152;11.004;2023-02-15T13:12:29;6.40;99.90
9730;DHT22;4904;49.152;11.004;2023-02-15T13:14:58;6.30;99.90
9730;DHT22;4904;49.152;11.004;2023-02-15T13:17:29;6.10;99.90
9730;DHT22;4904;49.152;11.004;2023-02-15T13:20:02;6.20;99.90
9730;DHT22;4904;49.152;11.004;2023-02-15T13:22:36;6.40;99.90
9730;DHT22;4904;49.152;11.004;2023-02-15T13:25:11;6.40;99.90
9730;DHT22;4904;49.152;11.004;2023-02-15T13:27:41;6.50;99.90
9730;DHT22;4904;49.152;11.004;2023-02-15T13:30:19;6.60;99.90
9730;DHT22;4904;49.152;11.004;2023-02-15T13:32:52;6.70;99.90
9730;DHT22;4904;49.152;11.004;2023-02-15T13:35:23;6.60;99.90
9730;DHT22;4904;49.152;11.004;2023-02-15T13:38:02;6.70;99.90
9730;DHT22;4904;49.152;11.004;2023-02-15T13:40:37;6.90;99.90
9730;DHT22;4904;49.152;11.004;2023-02-15T13:43:19;7.10;99.90
9730;DHT22;4904;49.152;11.004;2023-02-15T13:45:56;7.20;99.90
9730;DHT22;4904;49.152;11.004;2023-02-15T13:48:34;7.40;99.90
9730;DHT22;4904;49.152;11.004;2023-02-15T13:51:12;7.40;99.90
9730;DHT22;4904;49.152;11.004;2023-02-15T13:56:50;7.20;99.90
9730;DHT22;4904;49.152;11.004;2023-02-15T13:59:30;7.10;99.90
9730;DHT22;4904;49.152;11.004;2023-02-15T14:02:26;7.20;99.90
9730;DHT22;4904;49.152;11.004;2023-02-15T14:05:10;7.30;99.90
9730;DHT22;4904;49.152;11.004;2023-02-15T14:08:01;7.50;99.90
9730;DHT22;4904;49.152;11.004;2023-02-15T14:10:46;7.50;99.90
9730;DHT22;4904;49.152;11.004;2023-02-15T14:16:19;7.40;99.90
9730;DHT22;4904;49.152;11.004;2023-02-15T14:18:51;7.40;99.90
9730;DHT22;4904;49.152;11.004;2023-02-15T14:21:27;7.40;99.90
9730;DHT22;4904;49.152;11.004;2023-02-15T14:24:09;7.50;99.90
9730;DHT22;4904;49.152;11.004;2023-02-15T14:26:47;7.60;99.90
9730;DHT22;4904;49.152;11.004;2023-02-15T14:29:24;7.80;99.90
9730;DHT22;4904;49.152;11.004;2023-02-15T14:31:57;7.80;99.90
9730;DHT22;4904;49.152;11.004;2023-02-15T14:34:30;7.70;99.90
9730;DHT22;4904;49.152;11.004;2023-02-15T14:36:57;7.60;99.90
9730;DHT22;4904;49.152;11.004;2023-02-15T14:39:36;7.80;99.90
9730;DHT22;4904;49.152;11.004;2023-02-15T14:42:36;8.10;99.90
9730;DHT22;4904;49.152;11.004;2023-02-15T14:45:15;8.00;99.90
9730;DHT22;4904;49.152;11.004;2023-02-15T14:47:46;8.30;99.90
9730;DHT22;4904;49.152;11.004;2023-02-15T14:50:37;8.60;99.90
9730;DHT22;4904;49.152;11.004;2023-02-15T14:53:35;9.00;99.90
9730;DHT22;4904;49.152;11.004;2023-02-15T14:56:25;9.80;99.90
9730;DHT22;4904;49.152;11.004;2023-02-15T14:59:16;10.40;99.90
9730;DHT22;4904;49.152;11.004;2023-02-15T15:01:52;10.90;99.90
9730;DHT22;4904;49.152;11.004;2023-02-15T15:04:29;11.10;99.90
9730;DHT22;4904;49.152;11.004;2023-02-15T15:07:07;11.20;99.90
9730;DHT22;4904;49.152;11.004;2023-02-15T15:09:37;11.30;99.90
9730;DHT22;4904;49.152;11.004;2023-02-15T15:14:57;11.40;99.90
9730;DHT22;4904;49.152;11.004;2023-02-15T15:20:51;11.40;99.90
9730;DHT22;4904;49.152;11.004;2023-02-15T15:23:40;11.70;99.90
9730;DHT22;4904;49.152;11.004;2023-02-15T15:26:25;11.80;99.90
9730;DHT22;4904;49.152;11.004;2023-02-15T15:29:01;11.70;99.90
9730;DHT22;4904;49.152;11.004;2023-02-15T15:31:42;11.60;99.90
9730;DHT22;4904;49.152;11.004;2023-02-15T15:40:42;11.50;99.90
9730;DHT22;4904;49.152;11.004;2023-02-15T15:43:40;11.70;99.90
9730;DHT22;4904;49.152;11.004;2023-02-15T15:49:21;11.30;99.90
9730;DHT22;4904;49.152;11.004;2023-02-15T15:51:50;11.50;99.90
9730;DHT22;4904;49.152;11.004;2023-02-15T15:54:19;11.70;99.90
9730;DHT22;4904;49.152;11.004;2023-02-15T15:56:49;11.90;99.90
9730;DHT22;4904;49.152;11.004;2023-02-15T15:59:19;11.80;99.90
9730;DHT22;4904;49.152;11.004;2023-02-15T16:01:47;12.00;99.90
9730;DHT22;4904;49.152;11.004;2023-02-15T16:04:24;11.80;99.90
9730;DHT22;4904;49.152;11.004;2023-02-15T16:06:51;11.90;99.90
9730;DHT22;4904;49.152;11.004;2023-02-15T16:09:20;11.60;99.90
9730;DHT22;4904;49.152;11.004;2023-02-15T16:11:49;11.50;99.90
9730;DHT22;4904;49.152;11.004;2023-02-15T16:14:23;11.50;99.90
9730;DHT22;4904;49.152;11.004;2023-02-15T16:16:54;11.20;99.90
9730;DHT22;4904;49.152;11.004;2023-02-15T16:19:28;10.80;99.90
9730;DHT22;4904;49.152;11.004;2023-02-15T16:21:59;10.40;99.90
9730;DHT22;4904;49.152;11.004;2023-02-15T16:24:38;10.10;99.90
9730;DHT22;4904;49.152;11.004;2023-02-15T16:27:23;9.80;99.90
9730;DHT22;4904;49.152;11.004;2023-02-15T16:29:52;9.30;99.90
9730;DHT22;4904;49.152;11.004;2023-02-15T16:32:21;8.90;99.90
9730;DHT22;4904;49.152;11.004;2023-02-15T16:34:56;8.60;99.90
9730;DHT22;4904;49.152;11.004;2023-02-15T16:37:25;8.40;99.90
9730;DHT22;4904;49.152;11.004;2023-02-15T16:39:54;8.10;99.90
9730;DHT22;4904;49.152;11.004;2023-02-15T16:42:21;7.80;99.90
9730;DHT22;4904;49.152;11.004;2023-02-15T16:44:51;7.40;99.90
9730;DHT22;4904;49.152;11.004;2023-02-15T16:47:24;7.20;99.90
9730;DHT22;4904;49.152;11.004;2023-02-15T16:49:54;7.00;99.90
9730;DHT22;4904;49.152;11.004;2023-02-15T16:52:23;7.00;99.90
9730;DHT22;4904;49.152;11.004;2023-02-15T16:54:54;6.80;99.90
9730;DHT22;4904;49.152;11.004;2023-02-15T16:57:24;6.60;99.90
9730;DHT22;4904;49.152;11.004;2023-02-15T16:59:55;6.50;99.90
9730;DHT22;4904;49.152;11.004;2023-02-15T17:02:25;6.30;99.90
9730;DHT22;4904;49.152;11.004;2023-02-15T17:05:12;6.20;99.90
9730;DHT22;4904;49.152;11.004;2023-02-15T17:07:42;6.00;99.90
9730;DHT22;4904;49.152;11.004;2023-02-15T17:10:27;5.70;99.90